sensor_id;sensor_type;location;lat;lon;timestamp;temperature;humidity
20162;DHT22;51382;53.180;15.414;2023-05-18T00:09:12;8.40;99.90
20162;DHT22;51382;53.180;15.414;2023-05-18T00:24:24;7.90;99.90
20162;DHT22;51382;53.180;15.414;2023-05-18T00:39:35;7.60;99.90
20162;DHT22;51382;53.180;15.414;2023-05-18T00:54:46;6.60;99.90
20162;DHT22;51382;53.180;15.414;2023-05-18T01:09:55;6.50;99.90
20162;DHT22;51382;53.180;15.414;2023-05-18T01:25:11;6.30;99.90
20162;DHT22;51382;53.180;15.414;2023-05-18T01:40:39;6.10;99.90
20162;DHT22;51382;53.180;15.414;2023-05-18T01:55:56;5.60;99.90
20162;DHT22;51382;53.180;15.414;2023-05-18T02:11:10;5.10;99.90
20162;DHT22;51382;53.180;15.414;2023-05-18T02:26:21;5.10;99.90
20162;DHT22;51382;53.180;15.414;2023-05-18T02:41:33;5.10;99.90
20162;DHT22;51382;53.180;15.414;2023-05-18T02:56:45;5.00;99.90
20162;DHT22;51382;53.180;15.414;2023-05-18T03:12:02;4.80;99.90
20162;DHT22;51382;53.180;15.414;2023-05-18T03:27:14;4.80;99.90
20162;DHT22;51382;53.180;15.414;2023-05-18T03:42:26;4.70;99.90
20162;DHT22;51382;53.180;15.414;2023-05-18T03:57:38;4.20;99.90
20162;DHT22;51382;53.180;15.414;2023-05-18T04:12:50;4.40;99.90
20162;DHT22;51382;53.180;15.414;2023-05-18T04:28:01;5.10;99.90
20162;DHT22;51382;53.180;15.414;2023-05-18T04:43:13;5.90;99.90
20162;DHT22;51382;53.180;15.414;2023-05-18T04:58:25;17.40;88.10
20162;DHT22;51382;53.180;15.414;2023-05-18T05:13:37;18.40;84.20
20162;DHT22;51382;53.180;15.414;2023-05-18T05:28:49;22.00;64.40
20162;DHT22;51382;53.180;15.414;2023-05-18T05:44:00;19.30;68.80
20162;DHT22;51382;53.180;15.414;2023-05-18T05:59:11;23.00;60.70
20162;DHT22;51382;53.180;15.414;2023-05-18T06:14:23;25.70;53.40
20162;DHT22;51382;53.180;15.414;2023-05-18T06:29:35;18.50;68.00
20162;DHT22;51382;53.180;15.414;2023-05-18T06:45:15;23.10;59.00
20162;DHT22;51382;53.180;15.414;2023-05-18T07:00:36;19.10;60.70
20162;DHT22;51382;53.180;15.414;2023-05-18T07:15:48;26.90;42.60
20162;DHT22;51382;53.180;15.414;2023-05-18T07:30:59;28.30;37.70
20162;DHT22;51382;53.180;15.414;2023-05-18T07:46:10;26.20;34.80
20162;DHT22;51382;53.180;15.414;2023-05-18T08:01:21;29.50;31.40
20162;DHT22;51382;53.180;15.414;2023-05-18T08:16:35;24.40;40.30
20162;DHT22;51382;53.180;15.414;2023-05-18T08:31:47;20.70;44.40
20162;DHT22;51382;53.180;15.414;2023-05-18T08:46:59;24.50;37.70
20162;DHT22;51382;53.180;15.414;2023-05-18T09:02:11;26.20;36.40
20162;DHT22;51382;53.180;15.414;2023-05-18T09:17:23;28.70;35.70
20162;DHT22;51382;53.180;15.414;2023-05-18T09:48:44;26.10;34.10
20162;DHT22;51382;53.180;15.414;2023-05-18T10:04:02;18.30;52.00
20162;DHT22;51382;53.180;15.414;2023-05-18T10:19:14;16.70;50.30
20162;DHT22;51382;53.180;15.414;2023-05-18T10:34:25;16.60;47.70
20162;DHT22;51382;53.180;15.414;2023-05-18T10:49:37;16.60;53.00
20162;DHT22;51382;53.180;15.414;2023-05-18T11:04:51;15.80;56.60
20162;DHT22;51382;53.180;15.414;2023-05-18T11:20:14;17.00;52.50
20162;DHT22;51382;53.180;15.414;2023-05-18T11:35:26;16.80;51.50
20162;DHT22;51382;53.180;15.414;2023-05-18T11:50:40;16.40;48.80
20162;DHT22;51382;53.180;15.414;2023-05-18T12:05:57;16.40;47.60
20162;DHT22;51382;53.180;15.414;2023-05-18T12:21:10;16.60;48.60
20162;DHT22;51382;53.180;15.414;2023-05-18T12:36:21;16.60;51.60
20162;DHT22;51382;53.180;15.414;2023-05-18T12:51:34;16.60;47.10
20162;DHT22;51382;53.180;15.414;2023-05-18T13:06:47;17.10;48.20
20162;DHT22;51382;53.180;15.414;2023-05-18T13:21:58;17.00;47.90
20162;DHT22;51382;53.180;15.414;2023-05-18T13:37:10;17.50;48.20
20162;DHT22;51382;53.180;15.414;2023-05-18T13:52:21;17.20;46.20
20162;DHT22;51382;53.180;15.414;2023-05-18T14:07:33;17.70;47.60
20162;DHT22;51382;53.180;15.414;2023-05-18T14:22:44;18.10;50.40
20162;DHT22;51382;53.180;15.414;2023-05-18T14:37:55;18.30;46.00
20162;DHT22;51382;53.180;15.414;2023-05-18T14:53:06;17.40;47.70
20162;DHT22;51382;53.180;15.414;2023-05-18T15:08:18;18.40;47.80
20162;DHT22;51382;53.180;15.414;2023-05-18T15:23:30;18.50;45.30
20162;DHT22;51382;53.180;15.414;2023-05-18T15:38:41;19.00;46.90
20162;DHT22;51382;53.180;15.414;2023-05-18T15:53:53;17.20;49.90
20162;DHT22;51382;53.180;15.414;2023-05-18T16:09:04;17.80;46.70
20162;DHT22;51382;53.180;15.414;2023-05-18T16:24:15;18.10;47.00
20162;DHT22;51382;53.180;15.414;2023-05-18T16:39:26;18.10;48.70
20162;DHT22;51382;53.180;15.414;2023-05-18T16:54:33;17.50;52.00
20162;DHT22;51382;53.180;15.414;2023-05-18T17:09:44;17.30;52.70
20162;DHT22;51382;53.180;15.414;2023-05-18T17:24:55;16.40;56.50
20162;DHT22;51382;53.180;15.414;2023-05-18T17:40:07;16.30;56.90
20162;DHT22;51382;53.180;15.414;2023-05-18T17:55:19;15.50;65.10
20162;DHT22;51382;53.180;15.414;2023-05-18T18:10:34;15.40;61.70
20162;DHT22;51382;53.180;15.414;2023-05-18T18:25:45;14.60;64.10
20162;DHT22;51382;53.180;15.414;2023-05-18T18:40:56;13.80;65.80
20162;DHT22;51382;53.180;15.414;2023-05-18T18:56:11;13.60;66.70
20162;DHT22;51382;53.180;15.414;2023-05-18T19:11:22;12.70;70.80
20162;DHT22;51382;53.180;15.414;2023-05-18T19:26:33;11.70;74.90
20162;DHT22;51382;53.180;15.414;2023-05-18T19:41:45;11.50;75.10
20162;DHT22;51382;53.180;15.414;2023-05-18T19:56:51;10.90;77.90
20162;DHT22;51382;53.180;15.414;2023-05-18T20:12:03;10.30;81.70
20162;DHT22;51382;53.180;15.414;2023-05-18T20:27:15;10.00;83.20
20162;DHT22;51382;53.180;15.414;2023-05-18T20:42:30;9.80;85.00
20162;DHT22;51382;53.180;15.414;2023-05-18T20:57:45;9.50;87.60
20162;DHT22;51382;53.180;15.414;2023-05-18T21:12:57;9.40;88.90
20162;DHT22;51382;53.180;15.414;2023-05-18T21:28:08;9.10;90.80
20162;DHT22;51382;53.180;15.414;2023-05-18T21:43:19;8.70;92.40
20162;DHT22;51382;53.180;15.414;2023-05-18T21:58:31;8.40;94.40
20162;DHT22;51382;53.180;15.414;2023-05-18T22:13:42;8.20;96.70
20162;DHT22;51382;53.180;15.414;2023-05-18T22:28:54;8.00;98.80
20162;DHT22;51382;53.180;15.414;2023-05-18T22:44:05;8.10;99.90
20162;DHT22;51382;53.180;15.414;2023-05-18T22:59:16;10.00;99.90
20162;DHT22;51382;53.180;15.414;2023-05-18T23:14:27;8.00;99.90
20162;DHT22;51382;53.180;15.414;2023-05-18T23:29:40;7.90;99.90
20162;DHT22;51382;53.180;15.414;2023-05-18T23:44:52;7.90;99.90
